Aviation Digital Data Service (ADDS)

Output produced by METARs form (0850 UTC 24 March 2019)
found at http://www.aviationweather.gov/metar/data/
 
Forecast for: MYNN (NASSAU INTL , BS)
Text: MYNN 240330Z 2406/2506 09006KT 9999 SCT030
Forecast period: 0600 to 1300 UTC 24 March 2019
Forecast type: FROM: standard forecast or significant change
Winds: from the E (90 degrees) at 7 MPH (6 knots; 3.1 m/s)
Visibility: 6 or more miles 10+ km)
Ceiling: at least 12,000 feet AGL
Clouds: scattered clouds at 3000 feet AGL
Weather: no significant weather forecast for this period
Text: BECMG 2413/2415 09014KT
Forecast period: 1300 UTC 24 March 2019 to 0600 UTC 25 March 2019
Forecast type: BECOMING: Conditions expected to become as follows by 1500 UTC 24 March 2019
Winds: from the E (90 degrees) at 16 MPH (14 knots; 7.2 m/s)
Visibility: 6 or more miles 10+ km)
Ceiling: at least 12,000 feet AGL
Clouds: scattered clouds at 3000 feet AGL
Weather: no significant weather forecast for this period